DFW weather

Dallas Fort Worth International Airport
Dallas-Fort Worth, Texas, United States

Public forecast

Using degrees Fahrenheit for public forecast. Weather courtesy of forecast.io.

METAR (pilot weather report)

Retrieved 2017/10/24 05:53 UTC (53 minutes ago):

KDFW 240553Z 36010KT 10SM FEW300 18/03 A3022 RMK AO2 SLP228 T01830028 10250 20178 402890094 53022

TAF (pilot weather forecast)

Retrieved 2017/10/24 06:22 UTC (24 minutes ago):

TAF KDFW 240520Z 2406/2512 34014KT P6SM FEW300 FM241700 33019G29KT P6SM SKC FM250100 33012KT P6SM SKC